Time;durP1;ratioP1;P1;durP2;ratioP2;P2;SDS_P1;SDS_P2;PMS_P1;PMS_P2;Temp;Humidity;BMP_temperature;BMP_pressure;BME280_temperature;BME280_humidity;BME280_pressure;Samples;Min_cycle;Max_cycle;Signal;HPM_P1;HPM_P2
2022/01/29 00:02:25;;;;;;;11.43;4.90;;;;;;;;;;4985949;28;20045;-67
2022/01/29 00:04:51;;;;;;;10.00;4.50;;;;;;;;;;4969872;28;20491;-67
2022/01/29 00:07:17;;;;;;;11.45;4.60;;;;;;;;;;4984898;28;20038;-67
2022/01/29 00:09:44;;;;;;;8.85;4.07;;;;;;;;;;4985944;28;20041;-67
2022/01/29 00:12:10;;;;;;;8.90;4.35;;;;;;;;;;4985013;28;20046;-68
2022/01/29 00:14:37;;;;;;;9.43;4.20;;;;;;;;;;4986145;28;20046;-67
2022/01/29 00:17:03;;;;;;;10.18;4.45;;;;;;;;;;4984585;28;20096;-67
2022/01/29 00:19:29;;;;;;;8.98;4.47;;;;;;;;;;4969820;28;20048;-67
2022/01/29 00:21:57;;;;;;;12.20;4.45;;;;;;;;;;4984597;28;20057;-67
2022/01/29 00:24:24;;;;;;;11.85;4.45;;;;;;;;;;4985630;28;20094;-67
2022/01/29 00:26:50;;;;;;;11.23;4.25;;;;;;;;;;4968594;28;20081;-68
2022/01/29 00:29:22;;;;;;;9.95;4.15;;;;;;;;;;5003179;28;20034;-67
2022/01/29 00:31:48;;;;;;;10.98;4.05;;;;;;;;;;4984981;28;20081;-67
2022/01/29 00:34:14;;;;;;;10.02;4.10;;;;;;;;;;4985219;28;20630;-67
2022/01/29 00:36:40;;;;;;;11.50;4.22;;;;;;;;;;4982896;28;20044;-67
2022/01/29 00:39:07;;;;;;;8.95;4.00;;;;;;;;;;4985830;28;20195;-67
2022/01/29 00:41:33;;;;;;;11.02;4.20;;;;;;;;;;4984446;28;20038;-67
2022/01/29 00:43:59;;;;;;;10.48;4.50;;;;;;;;;;4985326;28;20127;-67
2022/01/29 00:46:25;;;;;;;10.52;4.47;;;;;;;;;;4984575;28;20037;-67
2022/01/29 00:48:51;;;;;;;10.48;3.97;;;;;;;;;;4985643;28;20041;-67
2022/01/29 00:51:17;;;;;;;11.30;4.00;;;;;;;;;;4968527;28;20069;-68
2022/01/29 00:53:43;;;;;;;10.02;4.03;;;;;;;;;;4985194;28;20155;-68
2022/01/29 00:56:10;;;;;;;8.05;3.67;;;;;;;;;;4984169;28;20041;-67
2022/01/29 00:58:36;;;;;;;10.20;3.50;;;;;;;;;;4969285;28;20052;-67
2022/01/29 01:01:03;;;;;;;11.15;4.22;;;;;;;;;;4984183;28;20049;-68
2022/01/29 01:03:29;;;;;;;7.55;3.50;;;;;;;;;;4984721;28;20049;-67
2022/01/29 01:05:55;;;;;;;7.78;3.42;;;;;;;;;;4984472;28;20487;-67
2022/01/29 01:08:21;;;;;;;7.00;3.20;;;;;;;;;;4984875;28;20038;-67
2022/01/29 01:10:47;;;;;;;8.40;3.90;;;;;;;;;;4985042;28;20061;-67
2022/01/29 01:13:13;;;;;;;8.52;3.28;;;;;;;;;;4984374;28;20127;-67
2022/01/29 01:15:39;;;;;;;9.48;3.17;;;;;;;;;;4984784;28;20042;-67
2022/01/29 01:18:05;;;;;;;8.00;3.00;;;;;;;;;;4983417;28;20531;-68
2022/01/29 01:20:31;;;;;;;8.88;3.42;;;;;;;;;;4984798;28;20172;-67
2022/01/29 01:22:57;;;;;;;8.35;3.80;;;;;;;;;;4983130;28;20173;-67
2022/01/29 01:25:23;;;;;;;7.05;3.50;;;;;;;;;;4985112;28;20158;-67
2022/01/29 01:27:49;;;;;;;6.50;2.75;;;;;;;;;;4968561;28;20054;-67
2022/01/29 01:30:15;;;;;;;9.40;2.97;;;;;;;;;;4966477;28;20046;-67
2022/01/29 01:32:41;;;;;;;8.52;2.97;;;;;;;;;;4998405;28;20041;-67
2022/01/29 01:35:15;;;;;;;9.75;3.15;;;;;;;;;;4985030;28;20152;-67
2022/01/29 01:37:53;;;;;;;;;;;;;;;;;;4967919;28;20447;-67
2022/01/29 01:40:21;;;;;;;8.93;3.20;;;;;;;;;;4984742;28;19917;-67
2022/01/29 01:42:47;;;;;;;8.48;3.25;;;;;;;;;;4983532;28;20042;-67
2022/01/29 01:45:13;;;;;;;8.57;3.15;;;;;;;;;;4984480;28;20046;-67
2022/01/29 01:47:39;;;;;;;9.85;3.60;;;;;;;;;;4983508;28;20068;-67
2022/01/29 01:50:06;;;;;;;7.97;2.95;;;;;;;;;;4984719;28;20049;-67
2022/01/29 01:52:32;;;;;;;10.52;3.65;;;;;;;;;;4983920;28;20392;-67
2022/01/29 01:54:58;;;;;;;9.00;3.85;;;;;;;;;;4969007;28;20108;-72
2022/01/29 01:57:24;;;;;;;7.40;3.22;;;;;;;;;;4968351;28;20046;-73
2022/01/29 01:59:50;;;;;;;9.07;3.53;;;;;;;;;;5003070;28;20042;-72
2022/01/29 02:02:16;;;;;;;8.63;3.65;;;;;;;;;;5002108;28;20049;-72
2022/01/29 02:04:42;;;;;;;7.68;2.95;;;;;;;;;;4985382;28;20353;-72
2022/01/29 02:07:09;;;;;;;5.78;2.83;;;;;;;;;;4982617;28;20436;-72
2022/01/29 02:09:37;;;;;;;8.07;3.17;;;;;;;;;;4985358;28;20057;-72
2022/01/29 02:12:04;;;;;;;7.72;3.33;;;;;;;;;;4983977;28;20119;-72
2022/01/29 02:14:32;;;;;;;7.18;3.20;;;;;;;;;;4985023;28;20053;-72
2022/01/29 02:17:00;;;;;;;8.77;3.63;;;;;;;;;;4980541;28;20077;-72
2022/01/29 02:19:26;;;;;;;8.70;3.83;;;;;;;;;;4981924;28;20070;-72
2022/01/29 02:21:52;;;;;;;8.13;3.45;;;;;;;;;;4980672;28;20093;-72
2022/01/29 02:24:18;;;;;;;9.25;3.30;;;;;;;;;;4969058;28;20065;-72
2022/01/29 02:26:44;;;;;;;10.55;3.50;;;;;;;;;;4984538;28;20046;-72
2022/01/29 02:29:11;;;;;;;8.90;3.90;;;;;;;;;;4985226;28;20038;-72
2022/01/29 02:31:44;;;;;;;8.05;3.20;;;;;;;;;;4984293;28;20041;-72
2022/01/29 02:34:10;;;;;;;7.97;3.60;;;;;;;;;;4985648;28;20652;-72
2022/01/29 02:36:36;;;;;;;8.85;3.40;;;;;;;;;;4984160;28;20035;-72
2022/01/29 02:39:03;;;;;;;7.90;2.88;;;;;;;;;;4985611;28;20049;-72
2022/01/29 02:41:29;;;;;;;7.68;3.70;;;;;;;;;;4984767;28;20514;-72
2022/01/29 02:44:00;;;;;;;9.32;3.47;;;;;;;;;;4985399;28;20046;-72
2022/01/29 02:46:41;;;;;;;7.47;3.30;;;;;;;;;;4985332;28;20042;-72
2022/01/29 02:49:07;;;;;;;8.43;3.22;;;;;;;;;;4985355;28;20077;-72
2022/01/29 02:51:33;;;;;;;9.23;3.25;;;;;;;;;;4967889;28;20041;-72
2022/01/29 02:54:00;;;;;;;9.27;3.40;;;;;;;;;;4985067;28;20042;-72
2022/01/29 02:56:26;;;;;;;7.95;2.90;;;;;;;;;;4984755;28;20096;-72
2022/01/29 02:58:52;;;;;;;8.43;3.28;;;;;;;;;;4985076;28;20077;-73
2022/01/29 03:01:19;;;;;;;7.45;2.70;;;;;;;;;;4983952;28;20112;-72
2022/01/29 03:03:45;;;;;;;8.55;3.13;;;;;;;;;;4969517;28;20530;-72
2022/01/29 03:06:11;;;;;;;10.93;3.10;;;;;;;;;;4984113;28;20077;-72
2022/01/29 03:08:38;;;;;;;8.95;3.25;;;;;;;;;;4968724;28;20138;-72
2022/01/29 03:11:04;;;;;;;9.55;3.28;;;;;;;;;;4984889;28;20672;-72
2022/01/29 03:13:30;;;;;;;8.57;2.90;;;;;;;;;;4982734;28;20082;-72
2022/01/29 03:15:57;;;;;;;7.30;2.80;;;;;;;;;;4946286;28;20096;-72
2022/01/29 03:18:23;;;;;;;7.82;2.78;;;;;;;;;;4980525;28;20057;-72
2022/01/29 03:20:49;;;;;;;7.75;2.78;;;;;;;;;;4987650;28;20038;-72
2022/01/29 03:23:15;;;;;;;8.52;2.95;;;;;;;;;;4986014;28;20100;-72
2022/01/29 03:25:41;;;;;;;8.18;2.97;;;;;;;;;;4988324;28;20050;-71
2022/01/29 03:28:07;;;;;;;10.38;2.92;;;;;;;;;;4986589;28;20604;-72
2022/01/29 03:30:33;;;;;;;6.38;3.10;;;;;;;;;;4987399;28;20049;-72
2022/01/29 03:32:59;;;;;;;8.90;2.58;;;;;;;;;;4986835;28;20061;-73
2022/01/29 03:35:25;;;;;;;9.30;2.90;;;;;;;;;;4986177;28;20129;-72
2022/01/29 03:37:51;;;;;;;9.55;2.90;;;;;;;;;;4986171;28;20522;-72
2022/01/29 03:40:17;;;;;;;8.48;2.85;;;;;;;;;;4987387;28;20050;-72
2022/01/29 03:42:56;;;;;;;8.85;2.65;;;;;;;;;;4986834;28;20095;-72
2022/01/29 03:45:22;;;;;;;6.95;2.53;;;;;;;;;;4987753;28;20098;-72
2022/01/29 03:47:48;;;;;;;8.70;3.20;;;;;;;;;;4986323;28;20436;-72
2022/01/29 03:50:14;;;;;;;7.82;2.78;;;;;;;;;;4987689;28;20052;-72
2022/01/29 03:52:40;;;;;;;9.52;2.70;;;;;;;;;;4986028;28;20046;-72
2022/01/29 03:55:06;;;;;;;7.22;2.30;;;;;;;;;;5004410;28;20037;-72
2022/01/29 03:57:32;;;;;;;8.32;2.42;;;;;;;;;;4986419;28;20053;-72
2022/01/29 03:59:58;;;;;;;8.02;2.53;;;;;;;;;;4987092;28;20589;-72
2022/01/29 04:02:24;;;;;;;9.20;2.80;;;;;;;;;;4986081;28;20108;-72
2022/01/29 04:04:50;;;;;;;9.00;2.90;;;;;;;;;;4986020;28;20659;-72
2022/01/29 04:07:16;;;;;;;7.45;3.25;;;;;;;;;;4971531;28;20144;-72
2022/01/29 04:09:48;;;;;;;7.00;2.83;;;;;;;;;;4987071;28;20546;-72
2022/01/29 04:12:14;;;;;;;6.90;2.53;;;;;;;;;;4993790;28;20042;-72
2022/01/29 04:14:40;;;;;;;9.70;2.80;;;;;;;;;;4987083;28;20121;-72
2022/01/29 04:17:07;;;;;;;8.25;2.83;;;;;;;;;;4966296;28;20085;-72
2022/01/29 04:19:34;;;;;;;8.35;2.70;;;;;;;;;;4984171;28;20050;-72
2022/01/29 04:22:00;;;;;;;6.47;2.42;;;;;;;;;;4982541;28;20053;-72
2022/01/29 04:24:26;;;;;;;7.35;2.78;;;;;;;;;;4984840;28;20507;-72
2022/01/29 04:26:52;;;;;;;9.02;2.85;;;;;;;;;;4977016;28;20053;-72
2022/01/29 04:29:19;;;;;;;8.65;2.60;;;;;;;;;;4963946;28;20049;-72
2022/01/29 04:34:20;;;;;;;8.70;2.75;;;;;;;;;;4984871;28;20591;-73
2022/01/29 04:36:46;;;;;;;6.45;2.35;;;;;;;;;;4982008;28;20694;-72
2022/01/29 04:39:12;;;;;;;8.73;2.58;;;;;;;;;;4983622;28;20038;-72
2022/01/29 04:41:38;;;;;;;9.30;2.80;;;;;;;;;;4982353;28;20119;-72
2022/01/29 04:44:04;;;;;;;7.32;2.63;;;;;;;;;;4983321;28;20046;-73
2022/01/29 04:46:30;;;;;;;7.20;2.50;;;;;;;;;;4981957;28;20046;-72
2022/01/29 04:48:57;;;;;;;8.27;2.63;;;;;;;;;;4982603;28;20041;-72
2022/01/29 04:51:23;;;;;;;7.65;2.20;;;;;;;;;;4965826;28;20053;-72
2022/01/29 04:53:49;;;;;;;7.40;2.33;;;;;;;;;;4981619;28;20072;-72
2022/01/29 04:56:15;;;;;;;7.28;2.70;;;;;;;;;;4965671;28;20054;-72
2022/01/29 04:58:41;;;;;;;6.47;2.40;;;;;;;;;;4983114;28;20046;-72
2022/01/29 05:01:07;;;;;;;8.73;2.53;;;;;;;;;;4981963;28;20057;-71
2022/01/29 05:03:34;;;;;;;8.02;2.50;;;;;;;;;;4982627;28;20043;-72
2022/01/29 05:06:00;;;;;;;7.65;2.53;;;;;;;;;;4982779;28;20046;-72
2022/01/29 05:08:26;;;;;;;8.45;2.67;;;;;;;;;;4965846;28;20498;-72
2022/01/29 05:10:53;;;;;;;6.10;2.40;;;;;;;;;;4982072;28;20125;-72
2022/01/29 05:13:23;;;;;;;7.28;2.20;;;;;;;;;;4963139;28;20055;-73
2022/01/29 05:16:06;;;;;;;6.15;2.17;;;;;;;;;;4962904;28;20337;-73
2022/01/29 05:27:03;;;;;;;7.55;2.53;;;;;;;;;;4899504;28;20040;-73
2022/01/29 05:29:31;;;;;;;7.20;2.38;;;;;;;;;;4985811;28;20652;-73
2022/01/29 05:32:01;;;;;;;6.80;2.40;;;;;;;;;;4984588;28;20050;-72
2022/01/29 05:34:27;;;;;;;7.22;2.20;;;;;;;;;;4969930;28;20046;-73
2022/01/29 05:36:56;;;;;;;5.93;2.10;;;;;;;;;;4984452;28;20056;-73
2022/01/29 05:39:24;;;;;;;6.30;2.13;;;;;;;;;;4985569;28;20046;-72
2022/01/29 05:41:50;;;;;;;7.22;2.53;;;;;;;;;;4984560;28;20159;-73
2022/01/29 05:44:16;;;;;;;7.97;2.40;;;;;;;;;;4985424;28;20666;-73
2022/01/29 05:46:42;;;;;;;7.35;2.17;;;;;;;;;;4984872;28;20041;-73
2022/01/29 05:49:08;;;;;;;5.88;2.28;;;;;;;;;;4985536;28;20053;-73
2022/01/29 05:51:34;;;;;;;5.97;2.13;;;;;;;;;;4983068;28;20046;-73
2022/01/29 05:54:01;;;;;;;6.32;2.63;;;;;;;;;;4985309;28;20654;-72
2022/01/29 05:56:28;;;;;;;6.72;2.20;;;;;;;;;;4984274;28;20121;-73
2022/01/29 05:58:54;;;;;;;7.93;2.72;;;;;;;;;;4987431;28;20049;-73
2022/01/29 06:01:20;;;;;;;8.68;2.70;;;;;;;;;;4972503;28;20740;-73
2022/01/29 06:03:47;;;;;;;8.77;3.05;;;;;;;;;;4988684;28;20151;-73
2022/01/29 06:06:13;;;;;;;5.53;2.20;;;;;;;;;;5005337;28;20121;-73
2022/01/29 06:08:39;;;;;;;6.53;2.60;;;;;;;;;;4976799;28;20118;-73
2022/01/29 06:11:05;;;;;;;7.05;2.17;;;;;;;;;;4971304;28;20053;-73
2022/01/29 06:13:31;;;;;;;5.68;2.10;;;;;;;;;;4973005;28;20048;-73
2022/01/29 06:15:57;;;;;;;6.28;2.20;;;;;;;;;;4988110;28;20128;-72
2022/01/29 06:18:25;;;;;;;7.47;2.60;;;;;;;;;;4988421;28;20096;-67
2022/01/29 06:21:03;;;;;;;6.93;2.42;;;;;;;;;;4987534;28;20145;-67
2022/01/29 06:23:31;;;;;;;6.95;2.38;;;;;;;;;;4968059;28;20038;-66
2022/01/29 06:26:04;;;;;;;5.55;2.17;;;;;;;;;;4969686;28;20057;-67
2022/01/29 06:28:30;;;;;;;6.97;2.35;;;;;;;;;;4971916;28;20103;-68
2022/01/29 06:30:56;;;;;;;4.55;1.73;;;;;;;;;;4987199;28;20042;-68
2022/01/29 06:33:22;;;;;;;5.20;2.03;;;;;;;;;;4987786;28;20564;-68
2022/01/29 06:35:48;;;;;;;6.40;2.45;;;;;;;;;;4971259;28;20056;-68
2022/01/29 06:38:15;;;;;;;6.00;2.15;;;;;;;;;;4987211;28;20124;-68
2022/01/29 06:40:42;;;;;;;6.35;2.38;;;;;;;;;;4987919;28;20100;-68
2022/01/29 06:43:08;;;;;;;8.70;2.53;;;;;;;;;;4971284;28;20085;-66
2022/01/29 06:45:34;;;;;;;7.82;2.35;;;;;;;;;;5005860;28;20046;-68
2022/01/29 06:48:01;;;;;;;7.55;2.90;;;;;;;;;;4986786;28;20365;-68
2022/01/29 06:50:27;;;;;;;5.13;1.83;;;;;;;;;;5005270;28;20082;-68
2022/01/29 06:52:53;;;;;;;6.07;2.22;;;;;;;;;;4984873;28;20592;-68
2022/01/29 06:55:19;;;;;;;6.85;2.50;;;;;;;;;;4987361;28;20053;-68
2022/01/29 06:57:46;;;;;;;7.00;2.53;;;;;;;;;;4985475;28;20096;-68
2022/01/29 07:00:12;;;;;;;7.13;2.67;;;;;;;;;;4986099;28;20494;-68
2022/01/29 07:02:38;;;;;;;8.60;2.20;;;;;;;;;;4985073;28;20045;-68
2022/01/29 07:05:05;;;;;;;6.20;2.50;;;;;;;;;;4985643;28;20743;-68
2022/01/29 07:07:31;;;;;;;5.90;2.50;;;;;;;;;;4984392;28;20046;-68
2022/01/29 07:09:57;;;;;;;5.30;1.90;;;;;;;;;;4984934;28;20053;-67
2022/01/29 07:12:23;;;;;;;5.93;2.00;;;;;;;;;;4985908;28;20053;-67
2022/01/29 07:14:50;;;;;;;7.82;2.78;;;;;;;;;;4986497;28;20443;-67
2022/01/29 07:17:17;;;;;;;6.80;2.42;;;;;;;;;;4984788;28;20064;-68
2022/01/29 07:19:44;;;;;;;8.18;2.85;;;;;;;;;;4986020;28;20042;-68
2022/01/29 07:22:10;;;;;;;4.78;1.95;;;;;;;;;;4984257;28;20045;-67
2022/01/29 07:24:36;;;;;;;7.75;2.72;;;;;;;;;;5003392;28;20054;-68
2022/01/29 07:27:03;;;;;;;7.00;2.03;;;;;;;;;;4984410;28;20135;-68
2022/01/29 07:29:29;;;;;;;5.70;2.10;;;;;;;;;;4985308;28;20053;-68
2022/01/29 07:31:58;;;;;;;6.05;2.50;;;;;;;;;;4980579;28;20749;-68
2022/01/29 07:34:24;;;;;;;7.47;2.30;;;;;;;;;;4980131;28;20049;-67
2022/01/29 07:36:51;;;;;;;6.95;2.03;;;;;;;;;;4980712;28;20053;-67
2022/01/29 07:39:18;;;;;;;4.88;2.05;;;;;;;;;;4963662;28;20033;-68
2022/01/29 07:41:44;;;;;;;6.93;2.35;;;;;;;;;;4981454;28;20034;-68
2022/01/29 07:44:10;;;;;;;7.13;2.10;;;;;;;;;;4962265;28;20049;-67
2022/01/29 07:46:36;;;;;;;7.30;2.30;;;;;;;;;;4970212;28;20475;-67
2022/01/29 07:49:02;;;;;;;6.65;1.92;;;;;;;;;;4983815;28;20046;-68
2022/01/29 07:51:28;;;;;;;4.50;2.00;;;;;;;;;;4983578;28;20128;-67
2022/01/29 07:53:54;;;;;;;6.65;2.40;;;;;;;;;;4984580;28;20159;-67
2022/01/29 07:56:23;;;;;;;5.15;2.10;;;;;;;;;;4963998;28;20060;-68
2022/01/29 07:58:49;;;;;;;5.68;1.60;;;;;;;;;;4960404;28;20092;-67
2022/01/29 08:01:15;;;;;;;6.53;2.10;;;;;;;;;;4957982;28;20046;-67
2022/01/29 08:03:50;;;;;;;6.88;2.00;;;;;;;;;;4974648;28;20096;-68
2022/01/29 08:06:17;;;;;;;7.10;1.80;;;;;;;;;;4979314;28;20664;-68
2022/01/29 08:08:42;;;;;;;5.28;1.95;;;;;;;;;;4979569;28;20120;-67
2022/01/29 08:11:09;;;;;;;6.75;1.90;;;;;;;;;;4981697;28;20045;-67
2022/01/29 08:13:35;;;;;;;5.80;2.10;;;;;;;;;;4964151;28;20649;-68
2022/01/29 08:16:01;;;;;;;5.28;1.60;;;;;;;;;;4981836;28;20052;-67
2022/01/29 08:18:27;;;;;;;5.57;1.75;;;;;;;;;;4981702;28;20065;-68
2022/01/29 08:20:53;;;;;;;5.30;1.73;;;;;;;;;;4981509;28;20565;-68
2022/01/29 08:23:20;;;;;;;6.18;1.77;;;;;;;;;;4983846;28;20041;-67
2022/01/29 08:25:46;;;;;;;4.75;1.50;;;;;;;;;;4983663;28;20073;-68
2022/01/29 08:28:12;;;;;;;5.22;1.90;;;;;;;;;;4955956;28;20228;-68
2022/01/29 08:30:38;;;;;;;5.38;1.90;;;;;;;;;;4984420;28;20149;-68
2022/01/29 08:33:06;;;;;;;7.88;2.40;;;;;;;;;;4983211;28;20506;-68
2022/01/29 08:35:32;;;;;;;6.00;2.30;;;;;;;;;;4981977;28;20038;-67
2022/01/29 08:37:58;;;;;;;7.70;2.08;;;;;;;;;;4954871;28;20594;-68
2022/01/29 08:40:24;;;;;;;9.00;1.90;;;;;;;;;;4966569;28;20149;-68
2022/01/29 08:42:50;;;;;;;4.50;1.70;;;;;;;;;;4981602;28;20128;-67
2022/01/29 08:45:17;;;;;;;7.07;2.20;;;;;;;;;;4985457;28;20042;-67
2022/01/29 08:47:43;;;;;;;8.15;2.50;;;;;;;;;;4970085;28;20108;-67
2022/01/29 08:50:13;;;;;;;9.30;2.42;;;;;;;;;;4966407;28;20419;-67
2022/01/29 08:52:39;;;;;;;6.55;2.40;;;;;;;;;;4979756;28;20161;-67
2022/01/29 08:55:06;;;;;;;7.75;2.08;;;;;;;;;;4969493;28;20097;-67
2022/01/29 08:57:32;;;;;;;5.57;2.22;;;;;;;;;;4984867;28;20048;-67
2022/01/29 08:59:58;;;;;;;5.07;1.60;;;;;;;;;;4985553;28;20049;-67
2022/01/29 09:02:24;;;;;;;11.52;1.98;;;;;;;;;;4984083;28;20041;-67
2022/01/29 09:04:52;;;;;;;6.80;1.83;;;;;;;;;;4985187;28;20671;-67
2022/01/29 09:07:18;;;;;;;13.45;3.10;;;;;;;;;;4983969;28;20088;-67
2022/01/29 09:09:45;;;;;;;5.75;2.08;;;;;;;;;;4969316;28;20120;-67
2022/01/29 09:12:12;;;;;;;7.82;1.88;;;;;;;;;;4974137;28;20121;-67
2022/01/29 09:14:38;;;;;;;6.65;2.08;;;;;;;;;;4966115;28;20097;-67
2022/01/29 09:17:04;;;;;;;6.15;2.00;;;;;;;;;;4975026;28;20380;-67
2022/01/29 09:19:30;;;;;;;4.55;1.40;;;;;;;;;;4985470;28;20057;-67
2022/01/29 09:21:56;;;;;;;6.25;1.75;;;;;;;;;;4983795;28;20034;-67
2022/01/29 09:24:22;;;;;;;6.65;1.92;;;;;;;;;;4969235;28;20030;-67
2022/01/29 09:26:48;;;;;;;6.85;1.90;;;;;;;;;;4984527;28;20034;-67
2022/01/29 09:29:14;;;;;;;6.25;1.45;;;;;;;;;;4968709;28;20045;-67
2022/01/29 09:31:40;;;;;;;4.50;1.48;;;;;;;;;;4984131;28;20499;-67
2022/01/29 09:34:06;;;;;;;5.25;1.50;;;;;;;;;;4984366;28;20171;-67
2022/01/29 09:36:32;;;;;;;5.35;1.55;;;;;;;;;;4961277;28;20569;-67
2022/01/29 09:38:58;;;;;;;4.60;1.40;;;;;;;;;;4979880;28;20038;-67
2022/01/29 09:41:26;;;;;;;6.10;1.70;;;;;;;;;;4969540;28;20156;-68
2022/01/29 09:43:52;;;;;;;4.43;1.50;;;;;;;;;;4984996;28;20037;-67
2022/01/29 09:46:18;;;;;;;6.00;1.83;;;;;;;;;;4967700;28;20620;-67
2022/01/29 09:48:44;;;;;;;5.53;1.40;;;;;;;;;;4985129;28;20594;-67
2022/01/29 09:51:13;;;;;;;4.85;1.40;;;;;;;;;;4946113;28;21786;-67
2022/01/29 09:53:45;;;;;;;6.57;1.40;;;;;;;;;;4961814;28;20057;-67
2022/01/29 09:56:12;;;;;;;6.90;1.80;;;;;;;;;;4946220;28;20054;-67
2022/01/29 09:58:38;;;;;;;8.20;1.63;;;;;;;;;;4997034;28;20045;-67
2022/01/29 10:01:05;;;;;;;9.82;1.60;;;;;;;;;;5002083;28;20052;-67
2022/01/29 10:03:31;;;;;;;4.50;1.38;;;;;;;;;;5001574;28;20069;-67
2022/01/29 10:05:57;;;;;;;5.72;1.35;;;;;;;;;;4983911;28;20583;-67
2022/01/29 10:08:24;;;;;;;5.40;1.30;;;;;;;;;;4995829;28;20081;-67
2022/01/29 10:10:52;;;;;;;6.80;1.60;;;;;;;;;;5000173;28;20041;-67
2022/01/29 10:13:22;;;;;;;6.93;1.65;;;;;;;;;;4964595;28;20052;-67
2022/01/29 10:15:48;;;;;;;7.75;1.80;;;;;;;;;;4980536;28;20046;-67
2022/01/29 10:18:21;;;;;;;5.63;1.65;;;;;;;;;;4981604;28;20122;-67
2022/01/29 10:20:47;;;;;;;5.45;1.60;;;;;;;;;;4981174;28;20039;-67
2022/01/29 10:23:13;;;;;;;9.50;1.85;;;;;;;;;;4982300;28;20646;-67
2022/01/29 10:25:43;;;;;;;8.75;1.70;;;;;;;;;;4983839;28;20042;-67
2022/01/29 10:28:12;;;;;;;6.10;1.80;;;;;;;;;;4966153;28;20198;-67
2022/01/29 10:30:55;;;;;;;7.22;1.42;;;;;;;;;;4983132;28;20134;-67
2022/01/29 10:33:21;;;;;;;5.75;1.60;;;;;;;;;;4966681;28;20195;-66
2022/01/29 10:35:48;;;;;;;7.03;1.38;;;;;;;;;;4967156;28;20144;-67
2022/01/29 10:38:14;;;;;;;10.35;1.95;;;;;;;;;;4983600;28;20069;-67
2022/01/29 10:40:40;;;;;;;8.85;1.83;;;;;;;;;;4988611;28;20053;-67
2022/01/29 10:43:06;;;;;;;7.82;1.35;;;;;;;;;;4967136;28;20122;-66
2022/01/29 10:45:34;;;;;;;5.75;1.52;;;;;;;;;;4987385;28;20678;-67
2022/01/29 10:48:00;;;;;;;8.32;1.65;;;;;;;;;;4985368;28;20630;-67
2022/01/29 10:50:27;;;;;;;6.43;1.50;;;;;;;;;;4986702;28;20108;-66
2022/01/29 10:52:53;;;;;;;5.07;1.35;;;;;;;;;;4985313;28;20046;-67
2022/01/29 10:55:19;;;;;;;6.00;1.52;;;;;;;;;;4966556;28;20071;-67
2022/01/29 10:57:46;;;;;;;5.45;1.50;;;;;;;;;;4966611;28;20096;-67
2022/01/29 11:00:24;;;;;;;5.07;1.35;;;;;;;;;;4981312;28;20112;-69
2022/01/29 11:02:51;;;;;;;8.43;1.63;;;;;;;;;;4985441;28;20073;-69
2022/01/29 11:05:17;;;;;;;5.68;1.50;;;;;;;;;;4986774;28;20041;-67
2022/01/29 11:07:51;;;;;;;7.85;1.95;;;;;;;;;;4985063;28;20034;-69
2022/01/29 11:10:18;;;;;;;8.02;1.88;;;;;;;;;;4986824;28;20743;-69
2022/01/29 11:12:45;;;;;;;5.80;1.60;;;;;;;;;;5000691;28;20057;-70
2022/01/29 11:15:12;;;;;;;6.15;1.38;;;;;;;;;;4987010;28;20053;-68
2022/01/29 11:17:38;;;;;;;6.03;1.38;;;;;;;;;;4969236;28;20050;-68
2022/01/29 11:20:04;;;;;;;6.22;1.35;;;;;;;;;;4987452;28;20100;-71
2022/01/29 11:22:38;;;;;;;5.85;1.40;;;;;;;;;;4985405;28;20044;-69
2022/01/29 11:25:05;;;;;;;;;;;;;;;;;;4969247;28;20038;-71
2022/01/29 11:27:33;;;;;;;6.45;1.40;;;;;;;;;;4970020;28;19959;-70
2022/01/29 11:30:02;;;;;;;8.55;1.55;;;;;;;;;;4987315;28;20050;-68
2022/01/29 11:32:30;;;;;;;5.53;1.20;;;;;;;;;;4985620;28;20655;-70
2022/01/29 11:35:08;;;;;;;5.63;1.25;;;;;;;;;;4986402;28;20046;-68
2022/01/29 11:37:37;;;;;;;6.72;1.50;;;;;;;;;;4985818;28;20038;-68
2022/01/29 11:40:14;;;;;;;6.45;1.40;;;;;;;;;;4986980;28;20042;-69
2022/01/29 11:43:07;;;;;;;10.02;1.45;;;;;;;;;;4987909;28;20655;-69
2022/01/29 11:45:40;;;;;;;9.73;1.50;;;;;;;;;;4946027;28;20061;-69
2022/01/29 11:48:07;;;;;;;6.83;1.33;;;;;;;;;;4983800;28;20143;-70
2022/01/29 11:50:33;;;;;;;6.10;1.30;;;;;;;;;;4992422;28;20288;-69
2022/01/29 11:53:00;;;;;;;6.80;1.38;;;;;;;;;;4984381;28;20046;-69
2022/01/29 11:55:56;;;;;;;6.00;1.45;;;;;;;;;;4966612;28;20121;-69
2022/01/29 11:58:28;;;;;;;6.28;1.23;;;;;;;;;;4950808;28;20038;-70
2022/01/29 12:00:55;;;;;;;5.75;1.42;;;;;;;;;;4967804;28;20041;-69
2022/01/29 12:06:06;;;;;;;6.32;1.33;;;;;;;;;;4985891;28;20052;-69
2022/01/29 12:08:38;;;;;;;6.57;1.40;;;;;;;;;;4985074;28;20080;-69
2022/01/29 12:11:11;;;;;;;7.57;1.60;;;;;;;;;;4995201;28;20063;-70
2022/01/29 12:13:36;;;;;;;5.43;1.30;;;;;;;;;;4991789;28;20132;-69
2022/01/29 12:16:05;;;;;;;6.75;1.40;;;;;;;;;;4985457;28;20136;-70
2022/01/29 12:18:34;;;;;;;4.38;1.05;;;;;;;;;;4968511;28;20093;-69
2022/01/29 12:21:00;;;;;;;4.07;1.30;;;;;;;;;;4968522;28;20164;-69
2022/01/29 12:23:27;;;;;;;4.15;1.10;;;;;;;;;;4967208;28;20253;-69
2022/01/29 12:25:57;;;;;;;4.13;1.13;;;;;;;;;;4967447;28;20688;-69
2022/01/29 12:28:23;;;;;;;7.32;1.33;;;;;;;;;;4967055;28;20096;-70
2022/01/29 12:30:50;;;;;;;4.43;1.30;;;;;;;;;;4967212;28;20046;-69
2022/01/29 12:33:17;;;;;;;7.20;1.40;;;;;;;;;;4969444;28;20129;-70
2022/01/29 12:35:49;;;;;;;6.10;1.20;;;;;;;;;;4969872;28;20565;-70
2022/01/29 12:38:35;;;;;;;4.32;1.10;;;;;;;;;;4985423;28;20129;-69
2022/01/29 12:41:05;;;;;;;5.70;1.30;;;;;;;;;;4967146;28;20050;-70
2022/01/29 12:43:35;;;;;;;5.55;1.30;;;;;;;;;;4961333;28;20049;-69
2022/01/29 12:46:14;;;;;;;4.72;1.30;;;;;;;;;;4984911;28;20045;-69
2022/01/29 12:48:41;;;;;;;4.90;1.15;;;;;;;;;;4966891;28;20130;-69
2022/01/29 12:51:08;;;;;;;4.38;1.00;;;;;;;;;;4968630;28;20050;-70
2022/01/29 12:53:34;;;;;;;5.47;1.17;;;;;;;;;;5003594;28;20431;-69
2022/01/29 12:56:09;;;;;;;3.97;0.90;;;;;;;;;;4985030;28;20038;-69
2022/01/29 12:58:36;;;;;;;5.20;1.15;;;;;;;;;;4969578;28;20073;-69
2022/01/29 13:01:07;;;;;;;5.68;1.25;;;;;;;;;;4985211;28;20664;-69
2022/01/29 13:03:33;;;;;;;5.28;1.20;;;;;;;;;;4985583;28;20034;-69
2022/01/29 13:06:10;;;;;;;5.90;1.05;;;;;;;;;;4985308;28;20041;-69
2022/01/29 13:08:37;;;;;;;4.18;1.00;;;;;;;;;;4967843;28;20053;-69
2022/01/29 13:11:03;;;;;;;5.22;1.30;;;;;;;;;;4984947;28;20049;-69
2022/01/29 13:13:33;;;;;;;5.70;1.17;;;;;;;;;;4969435;28;20046;-69
2022/01/29 13:16:00;;;;;;;5.05;1.48;;;;;;;;;;4984391;28;20578;-69
2022/01/29 13:18:27;;;;;;;6.85;1.30;;;;;;;;;;4985829;28;20537;-69
2022/01/29 13:20:54;;;;;;;4.05;1.05;;;;;;;;;;4984889;28;20037;-70
2022/01/29 13:23:20;;;;;;;3.50;1.02;;;;;;;;;;4998760;28;20133;-69
2022/01/29 13:25:47;;;;;;;6.38;1.00;;;;;;;;;;4986612;28;20071;-69
2022/01/29 13:28:16;;;;;;;5.95;1.45;;;;;;;;;;4985075;28;20038;-69
2022/01/29 13:30:42;;;;;;;7.10;1.40;;;;;;;;;;4985238;28;20037;-69
2022/01/29 13:33:13;;;;;;;5.53;0.93;;;;;;;;;;4970462;28;20074;-69
2022/01/29 13:35:41;;;;;;;4.70;1.20;;;;;;;;;;4986268;28;20183;-69
2022/01/29 13:38:13;;;;;;;4.93;1.08;;;;;;;;;;4966421;28;20049;-69
2022/01/29 13:40:44;;;;;;;3.33;0.90;;;;;;;;;;4985336;28;20068;-69
2022/01/29 13:43:12;;;;;;;4.28;1.05;;;;;;;;;;4968042;28;20042;-69
2022/01/29 13:45:48;;;;;;;5.53;1.15;;;;;;;;;;4985339;28;20553;-69
2022/01/29 13:48:14;;;;;;;4.88;1.10;;;;;;;;;;4984622;28;20038;-69
2022/01/29 13:50:44;;;;;;;4.85;1.05;;;;;;;;;;4985312;28;20091;-69
2022/01/29 13:53:10;;;;;;;4.80;1.30;;;;;;;;;;4983298;28;20641;-69
2022/01/29 13:55:57;;;;;;;5.05;1.23;;;;;;;;;;4984903;28;20049;-69
2022/01/29 13:58:24;;;;;;;3.65;0.90;;;;;;;;;;4969202;28;20053;-69
2022/01/29 14:01:01;;;;;;;4.95;1.08;;;;;;;;;;4984770;28;20042;-70
2022/01/29 14:03:42;;;;;;;3.25;0.75;;;;;;;;;;4965623;28;20706;-69
2022/01/29 14:06:33;;;;;;;6.30;1.25;;;;;;;;;;4967514;28;20929;-69
2022/01/29 14:09:10;;;;;;;5.95;1.25;;;;;;;;;;4968730;28;20057;-70
2022/01/29 14:12:05;;;;;;;4.90;0.93;;;;;;;;;;4984297;28;20057;-69
2022/01/29 14:14:31;;;;;;;3.25;0.90;;;;;;;;;;4983541;28;20056;-69
2022/01/29 14:16:59;;;;;;;4.68;1.13;;;;;;;;;;4980376;28;20082;-70
2022/01/29 14:19:28;;;;;;;4.82;1.00;;;;;;;;;;4967004;28;20042;-69
2022/01/29 14:21:55;;;;;;;4.30;1.10;;;;;;;;;;4976352;28;20046;-69
2022/01/29 14:24:21;;;;;;;4.85;1.00;;;;;;;;;;4965917;28;20117;-69
2022/01/29 14:26:47;;;;;;;4.03;1.10;;;;;;;;;;4957171;28;20053;-69
2022/01/29 14:29:14;;;;;;;4.53;0.98;;;;;;;;;;4985108;28;20045;-69
2022/01/29 14:31:40;;;;;;;6.65;1.10;;;;;;;;;;4985619;28;20038;-69
2022/01/29 14:34:06;;;;;;;3.83;0.93;;;;;;;;;;4986460;28;20049;-69
2022/01/29 14:36:33;;;;;;;5.60;1.30;;;;;;;;;;4983443;28;20487;-69
2022/01/29 14:38:59;;;;;;;4.25;1.00;;;;;;;;;;4984768;28;20034;-69
2022/01/29 14:41:25;;;;;;;3.92;1.00;;;;;;;;;;4983961;28;20104;-69
2022/01/29 14:43:51;;;;;;;4.32;1.15;;;;;;;;;;4985405;28;20593;-69
2022/01/29 14:46:17;;;;;;;5.22;1.20;;;;;;;;;;4984344;28;20127;-69
2022/01/29 14:48:44;;;;;;;5.95;1.20;;;;;;;;;;4969013;28;20042;-69
2022/01/29 14:51:10;;;;;;;4.45;1.00;;;;;;;;;;4967117;28;20043;-69
2022/01/29 14:53:36;;;;;;;4.10;1.00;;;;;;;;;;4984640;28;20185;-69
2022/01/29 14:56:03;;;;;;;4.60;0.98;;;;;;;;;;4983703;28;20054;-69
2022/01/29 14:58:29;;;;;;;3.65;0.88;;;;;;;;;;4984373;28;20042;-69
2022/01/29 15:00:55;;;;;;;3.28;0.90;;;;;;;;;;4983775;28;20604;-69